Santa Catarina, Texas
Current Conditions -  °F | °C
As of 9:15 PM on Tuesday 21 Oct 2014 (Local Time) from KEBG Reporting Station
Light Rain Light Rain  
Wind Chill: 76°   Ceiling: 4900
Heat Index: 76°   Visibility: 10mi
Dew Point: 72°   Wind: 6mph
Humidity: 87%   Direction: 30°NNE
Pressure: 29.97"   Gusts: NA
Location:  26.5735°N, 98.695°W
Report Text: KEBG 220215Z AUTO 03005KT 10SM -RA SCT027 BKN049 OVC085 24/22 A2997 RMK AO2 T02440222
Loading
Personal Weather Stations






























Interactive Weather Map
Tropical Storm Tracking
New forecast layout! Learn more

10-Day Weather Forecast

Advertisements
Track Severe Weather on mobile